Time;durP1;ratioP1;P1;durP2;ratioP2;P2;SDS_P1;SDS_P2;PMS_P1;PMS_P2;Temp;Humidity;BMP_temperature;BMP_pressure;BME280_temperature;BME280_humidity;BME280_pressure;Samples;Min_cycle;Max_cycle;Signal;HPM_P1;HPM_P2
2021/12/22 00:02:03;;;;;;;44.88;17.92;;;;;;;-4.44;99.77;102384.81;5025711;28;20504;-77
2021/12/22 00:04:31;;;;;;;45.47;17.60;;;;;;;-4.56;99.72;102391.72;5011639;28;20071;-78
2021/12/22 00:06:57;;;;;;;43.53;17.33;;;;;;;-4.48;99.68;102389.09;5026071;28;20021;-78
2021/12/22 00:09:23;;;;;;;45.95;18.50;;;;;;;-4.41;99.42;102384.75;5028264;28;20400;-78
2021/12/22 00:11:49;;;;;;;38.08;16.25;;;;;;;-4.36;99.26;102383.00;5026249;28;20451;-77
2021/12/22 00:14:15;;;;;;;35.13;16.58;;;;;;;-4.24;99.10;102382.00;5019548;28;20032;-77
2021/12/22 00:16:40;;;;;;;35.47;15.18;;;;;;;-4.29;98.87;102384.59;5026217;28;20111;-77
2021/12/22 00:19:06;;;;;;;39.53;16.63;;;;;;;-4.26;98.97;102383.72;5020268;28;20071;-78
2021/12/22 00:21:31;;;;;;;44.80;17.63;;;;;;;-4.35;98.53;102384.66;5009248;28;20045;-78
2021/12/22 00:23:58;;;;;;;40.65;15.65;;;;;;;-4.41;98.85;102387.28;5028001;28;20041;-78
2021/12/22 00:26:23;;;;;;;33.85;14.52;;;;;;;-4.42;99.17;102391.53;5047112;28;20748;-77
2021/12/22 00:28:49;;;;;;;36.70;14.82;;;;;;;-4.47;99.18;102382.31;5007495;28;20060;-78
2021/12/22 00:31:18;;;;;;;40.42;15.55;;;;;;;-4.47;99.47;102375.56;5026732;28;20569;-78
2021/12/22 00:33:49;;;;;;;36.38;14.95;;;;;;;-4.25;99.08;102376.09;5027160;28;20052;-77
2021/12/22 00:36:20;;;;;;;35.03;15.18;;;;;;;-4.31;98.80;102373.66;5019479;28;20061;-78
2021/12/22 00:38:45;;;;;;;32.50;14.18;;;;;;;-4.13;98.65;102360.69;5024679;28;20064;-78
2021/12/22 00:41:11;;;;;;;36.33;15.52;;;;;;;-4.21;98.52;102361.69;5025168;28;20582;-78
2021/12/22 00:43:37;;;;;;;36.83;16.08;;;;;;;-4.07;98.39;102364.84;5028753;28;20063;-78
2021/12/22 00:46:03;;;;;;;31.70;14.90;;;;;;;-4.02;98.38;102362.25;5025295;28;20099;-78
2021/12/22 00:48:28;;;;;;;30.35;13.80;;;;;;;-4.18;98.54;102356.56;5027046;28;20037;-78
2021/12/22 00:50:54;;;;;;;30.70;13.27;;;;;;;-4.32;98.34;102364.38;5027858;28;20041;-78
2021/12/22 00:53:20;;;;;;;38.15;13.75;;;;;;;-4.36;98.12;102357.69;5027339;28;20040;-78
2021/12/22 00:55:46;;;;;;;35.33;14.05;;;;;;;-4.41;98.66;102360.25;5029100;28;20501;-78
2021/12/22 00:58:12;;;;;;;32.80;14.32;;;;;;;-4.47;98.63;102365.41;5026868;28;20120;-78
2021/12/22 01:00:38;;;;;;;34.45;14.45;;;;;;;-4.52;99.10;102377.31;5029191;28;20167;-78
2021/12/22 01:03:05;;;;;;;33.90;13.60;;;;;;;-4.26;98.97;102363.44;5022990;28;20026;-78
2021/12/22 01:05:31;;;;;;;39.33;14.02;;;;;;;-4.20;98.50;102366.75;5029758;28;20033;-79
2021/12/22 01:07:57;;;;;;;31.45;13.65;;;;;;;-4.12;98.70;102357.31;5026727;28;20033;-78
2021/12/22 01:10:26;;;;;;;28.15;13.45;;;;;;;-4.22;98.21;102365.94;5015292;28;20040;-78
2021/12/22 01:12:55;;;;;;;30.63;13.45;;;;;;;-4.26;98.50;102368.53;5027324;28;20610;-78
2021/12/22 01:15:21;;;;;;;30.83;12.93;;;;;;;-4.19;98.51;102370.09;5024493;28;20109;-78
2021/12/22 01:17:49;;;;;;;41.42;14.85;;;;;;;-4.20;98.49;102368.41;5004821;28;20037;-79
2021/12/22 01:20:33;;;;;;;33.33;13.23;;;;;;;-4.19;98.34;102365.88;5035583;28;20033;-79
2021/12/22 01:23:03;;;;;;;34.30;13.15;;;;;;;-4.07;98.18;102369.91;5041780;28;20041;-79
2021/12/22 01:25:32;;;;;;;48.10;14.15;;;;;;;-4.02;97.97;102374.94;5022207;28;20033;-79
2021/12/22 01:27:58;;;;;;;29.80;12.73;;;;;;;-3.99;97.92;102374.88;5019690;28;20083;-79
2021/12/22 01:30:27;;;;;;;30.38;12.05;;;;;;;-3.94;97.54;102383.22;5028432;28;20039;-79
2021/12/22 01:32:58;;;;;;;32.80;12.73;;;;;;;-3.95;97.24;102382.41;5024814;28;20069;-79
2021/12/22 01:35:28;;;;;;;35.65;14.02;;;;;;;-3.90;97.08;102384.84;5024741;28;20048;-79
2021/12/22 01:37:55;;;;;;;27.33;11.30;;;;;;;-3.89;96.98;102381.47;5029548;28;20041;-80
2021/12/22 01:40:20;;;;;;;31.45;12.38;;;;;;;-3.89;96.69;102384.00;5028301;28;20033;-78
2021/12/22 01:42:48;;;;;;;30.40;12.88;;;;;;;-3.87;96.28;102378.91;5022626;28;20037;-79
2021/12/22 01:45:47;;;;;;;37.67;12.55;;;;;;;-3.91;96.59;102378.13;5022813;28;20091;-79
2021/12/22 01:51:04;;;;;;;26.15;11.68;;;;;;;-3.77;96.21;102375.34;5025330;28;20048;-78
2021/12/22 01:53:44;;;;;;;31.15;12.00;;;;;;;-3.80;95.85;102378.78;5025896;28;20130;-79
2021/12/22 01:58:43;;;;;;;30.50;11.75;;;;;;;-3.74;95.74;102378.69;5042781;28;20037;-79
2021/12/22 02:01:10;;;;;;;24.38;11.63;;;;;;;-3.69;95.85;102382.84;5029752;28;20056;-80
2021/12/22 02:03:38;;;;;;;27.52;12.13;;;;;;;-3.78;95.82;102368.63;5011377;28;20032;-78
2021/12/22 02:06:05;;;;;;;21.50;10.43;;;;;;;-3.79;95.76;102370.31;5023972;28;20659;-78
2021/12/22 02:08:32;;;;;;;35.17;11.63;;;;;;;-3.81;95.92;102366.97;5027478;28;20052;-79
2021/12/22 02:10:58;;;;;;;24.27;11.45;;;;;;;-3.84;95.69;102372.09;5025613;28;20112;-78
2021/12/22 02:13:29;;;;;;;24.83;11.05;;;;;;;-3.80;95.29;102371.19;5013775;28;20574;-79
2021/12/22 02:15:55;;;;;;;25.90;11.10;;;;;;;-3.74;95.01;102368.53;5019842;28;20484;-78
2021/12/22 02:18:21;;;;;;;25.92;10.82;;;;;;;-3.69;95.18;102375.22;5023568;28;20091;-78
2021/12/22 02:20:49;;;;;;;22.98;9.80;;;;;;;-3.67;95.05;102368.44;5011928;28;20112;-78
2021/12/22 02:23:15;;;;;;;33.75;11.10;;;;;;;-3.68;94.82;102374.38;5026016;28;20037;-81
2021/12/22 02:25:50;;;;;;;28.05;11.13;;;;;;;-3.72;94.39;102366.81;5024718;28;20679;-79
2021/12/22 02:28:21;;;;;;;24.80;11.05;;;;;;;-3.71;94.46;102360.06;5019253;28;20030;-79
2021/12/22 02:30:47;;;;;;;22.75;10.27;;;;;;;-3.66;94.35;102360.81;5022366;28;20137;-78
2021/12/22 02:33:22;;;;;;;28.25;11.20;;;;;;;-3.59;94.16;102356.47;5023399;28;20025;-78
2021/12/22 02:36:11;;;;;;;23.75;9.85;;;;;;;-3.75;94.04;102359.28;5026442;28;20747;-79
2021/12/22 02:38:42;;;;;;;24.23;10.07;;;;;;;-3.89;94.68;102363.72;5029093;28;20052;-79
2021/12/22 02:41:12;;;;;;;29.05;11.00;;;;;;;-3.82;94.97;102367.84;5023155;28;20037;-79
2021/12/22 02:43:49;;;;;;;23.30;9.63;;;;;;;-3.80;94.39;102366.13;5021266;28;20044;-78
2021/12/22 02:46:24;;;;;;;20.63;9.43;;;;;;;-3.72;94.74;102371.88;5022598;28;20037;-79
2021/12/22 02:48:51;;;;;;;27.52;10.30;;;;;;;-3.76;94.47;102365.19;5042822;28;20037;-78
2021/12/22 02:51:17;;;;;;;29.05;11.25;;;;;;;-3.83;94.49;102367.88;5013944;28;20146;-78
2021/12/22 02:54:03;;;;;;;28.05;10.90;;;;;;;-3.88;94.33;102370.47;5027642;28;20044;-78
2021/12/22 02:59:06;;;;;;;27.25;10.55;;;;;;;-3.85;94.71;102369.59;5036533;28;20128;-79
2021/12/22 03:04:25;;;;;;;23.90;8.95;;;;;;;-3.94;94.55;102368.03;5028814;28;20020;-78
2021/12/22 03:09:26;;;;;;;23.48;10.25;;;;;;;-4.05;95.06;102367.34;5028296;28;20480;-79
2021/12/22 03:11:53;;;;;;;31.48;10.27;;;;;;;-4.09;95.17;102356.44;5026378;28;20120;-79
2021/12/22 03:14:20;;;;;;;29.00;11.73;;;;;;;-3.92;94.99;102356.16;5050461;28;20408;-78
2021/12/22 03:16:47;;;;;;;29.05;10.05;;;;;;;-3.96;94.45;102347.78;5026957;28;20045;-78
2021/12/22 03:19:18;;;;;;;20.75;9.80;;;;;;;-4.05;94.68;102342.00;5025612;28;20036;-79
2021/12/22 03:21:46;;;;;;;24.20;10.50;;;;;;;-3.97;94.74;102343.56;5039755;28;20040;-78
2021/12/22 03:24:12;;;;;;;25.95;11.35;;;;;;;-3.95;94.81;102339.31;5043449;28;20463;-78
2021/12/22 03:26:42;;;;;;;19.55;9.50;;;;;;;-3.91;94.39;102340.09;5042174;28;20038;-79
2021/12/22 03:29:09;;;;;;;24.38;9.82;;;;;;;-3.98;94.35;102346.97;5010359;28;20073;-80
2021/12/22 03:31:34;;;;;;;27.95;11.23;;;;;;;-4.03;94.73;102343.69;5024989;28;20088;-78
2021/12/22 03:34:00;;;;;;;27.50;10.25;;;;;;;-4.02;94.76;102347.03;5026818;28;20037;-79
2021/12/22 03:36:26;;;;;;;27.25;9.13;;;;;;;-4.00;94.51;102346.16;5029291;28;20045;-79
2021/12/22 03:38:51;;;;;;;22.25;10.05;;;;;;;-3.97;94.74;102347.81;5028958;28;20069;-78
2021/12/22 03:41:17;;;;;;;28.17;10.25;;;;;;;-4.03;94.78;102355.50;5032319;28;20044;-79
2021/12/22 03:43:42;;;;;;;24.63;10.40;;;;;;;-4.05;94.94;102354.69;5027455;28;20032;-79
2021/12/22 03:46:08;;;;;;;21.05;9.70;;;;;;;-4.11;94.84;102353.94;5026691;28;20041;-78
2021/12/22 03:48:33;;;;;;;24.00;10.13;;;;;;;-4.07;95.04;102351.34;5032266;28;20033;-78
2021/12/22 03:50:59;;;;;;;26.02;10.40;;;;;;;-4.12;94.83;102357.31;5031718;28;20053;-79
2021/12/22 03:53:25;;;;;;;24.92;10.27;;;;;;;-4.19;95.43;102350.66;5008334;28;20033;-79
2021/12/22 03:55:50;;;;;;;32.00;10.82;;;;;;;-4.14;95.70;102358.22;5026654;28;20102;-79
2021/12/22 03:58:16;;;;;;;27.52;10.73;;;;;;;-4.16;96.02;102359.94;5030887;28;20041;-79
2021/12/22 04:00:42;;;;;;;27.52;11.07;;;;;;;-4.18;95.77;102361.63;5030662;28;20048;-79
2021/12/22 04:03:15;;;;;;;24.13;10.25;;;;;;;-4.20;95.59;102364.22;5029929;28;20274;-79
2021/12/22 04:05:41;;;;;;;20.63;9.55;;;;;;;-4.09;95.28;102365.72;5007241;28;20471;-80
2021/12/22 04:08:06;;;;;;;24.23;10.95;;;;;;;-4.12;95.02;102370.00;5026367;28;20033;-79
2021/12/22 04:10:32;;;;;;;24.60;11.10;;;;;;;-4.21;95.05;102366.75;5032648;28;20037;-79
2021/12/22 04:12:57;;;;;;;24.42;9.85;;;;;;;-4.18;95.49;102375.16;5024212;28;20052;-79
2021/12/22 04:15:26;;;;;;;19.73;9.90;;;;;;;-4.18;95.34;102371.75;5013630;28;20032;-79
2021/12/22 04:17:51;;;;;;;24.60;9.23;;;;;;;-4.09;95.22;102364.03;5026201;28;20188;-79
2021/12/22 04:20:17;;;;;;;25.08;10.85;;;;;;;-4.12;95.01;102357.31;5011608;28;20116;-79
2021/12/22 04:22:43;;;;;;;25.10;10.43;;;;;;;-4.11;94.52;102363.22;5005204;28;20083;-79
2021/12/22 04:25:09;;;;;;;21.15;10.15;;;;;;;-4.16;94.78;102365.84;5027898;28;20041;-79
2021/12/22 04:27:37;;;;;;;25.65;10.55;;;;;;;-4.20;95.14;102365.88;5024527;28;20041;-79
2021/12/22 04:30:06;;;;;;;23.92;10.30;;;;;;;-4.17;94.84;102376.81;5021687;28;20048;-79
2021/12/22 04:32:31;;;;;;;24.05;11.23;;;;;;;-4.20;94.93;102381.09;5025623;28;20037;-79
2021/12/22 04:34:57;;;;;;;29.48;9.90;;;;;;;-4.16;95.24;102381.03;5026383;28;20131;-79
2021/12/22 04:37:22;;;;;;;25.63;10.55;;;;;;;-4.12;94.83;102381.84;5025208;28;20377;-79
2021/12/22 04:39:48;;;;;;;21.95;10.00;;;;;;;-4.13;94.80;102370.00;5031888;28;20037;-79
2021/12/22 04:42:15;;;;;;;23.48;9.60;;;;;;;-4.10;94.52;102372.50;5008462;28;20103;-79
2021/12/22 04:44:41;;;;;;;28.88;11.35;;;;;;;-4.18;94.48;102374.31;5026925;28;20053;-79
2021/12/22 04:47:06;;;;;;;28.08;10.40;;;;;;;-4.17;95.07;102368.38;5022903;28;20026;-79
2021/12/22 04:49:32;;;;;;;23.58;10.23;;;;;;;-4.16;95.01;102358.22;5006451;28;20034;-78
2021/12/22 04:51:59;;;;;;;23.52;9.77;;;;;;;-4.04;94.31;102359.72;5006458;28;20040;-79
2021/12/22 04:56:53;;;;;;;35.80;12.35;;;;;;;-4.13;94.69;102350.56;5028660;28;20051;-79
2021/12/22 04:59:19;;;;;;;25.83;10.50;;;;;;;-4.13;94.80;102354.81;5024506;28;20108;-79
2021/12/22 05:01:44;;;;;;;24.33;11.20;;;;;;;-4.18;94.55;102357.44;5012717;28;20680;-79
2021/12/22 05:04:10;;;;;;;29.02;12.13;;;;;;;-4.16;94.70;102355.69;5028126;28;20499;-79
2021/12/22 05:06:35;;;;;;;29.83;11.95;;;;;;;-4.15;94.99;102359.88;5009701;28;20038;-79
2021/12/22 05:09:03;;;;;;;27.88;11.35;;;;;;;-4.17;94.78;102350.66;5044271;28;20034;-80
2021/12/22 05:11:28;;;;;;;27.80;11.02;;;;;;;-4.23;94.73;102351.56;5023477;28;20029;-79
2021/12/22 05:13:54;;;;;;;24.10;10.57;;;;;;;-4.24;94.84;102347.34;5026580;28;20103;-79
2021/12/22 05:16:19;;;;;;;30.98;12.15;;;;;;;-4.17;94.87;102343.88;5033188;28;20045;-79
2021/12/22 05:21:30;;;;;;;30.55;11.50;;;;;;;-4.22;95.22;102349.88;5021666;28;20052;-79
2021/12/22 05:23:56;;;;;;;24.85;10.70;;;;;;;-4.12;94.89;102351.44;5025974;28;20105;-79
2021/12/22 05:26:25;;;;;;;33.70;11.68;;;;;;;-4.02;94.85;102347.03;5008287;28;20044;-79
2021/12/22 05:28:51;;;;;;;24.88;11.68;;;;;;;-4.05;94.78;102352.16;5008915;28;20029;-79
2021/12/22 05:31:17;;;;;;;22.73;9.43;;;;;;;-4.03;94.66;102346.22;5028213;28;20076;-79
2021/12/22 05:33:42;;;;;;;28.95;12.55;;;;;;;-4.02;94.47;102340.28;5030920;28;20047;-79
2021/12/22 05:36:08;;;;;;;25.45;11.23;;;;;;;-4.09;94.05;102340.41;5012588;28;20037;-79
2021/12/22 05:38:34;;;;;;;29.58;10.50;;;;;;;-3.99;94.17;102336.88;5026482;28;20068;-79
2021/12/22 05:41:00;;;;;;;25.70;11.27;;;;;;;-3.99;94.17;102337.69;5025599;28;20061;-79
2021/12/22 05:43:25;;;;;;;32.42;11.10;;;;;;;-4.03;94.39;102336.09;5013557;28;20106;-79
2021/12/22 05:45:51;;;;;;;27.10;10.57;;;;;;;-4.12;94.29;102341.28;5031971;28;20038;-79
2021/12/22 05:48:16;;;;;;;28.05;11.13;;;;;;;-4.15;94.75;102337.09;5024887;28;20044;-79
2021/12/22 05:50:45;;;;;;;30.35;11.60;;;;;;;-4.17;94.72;102338.81;5020638;28;20033;-79
2021/12/22 05:53:11;;;;;;;25.48;11.75;;;;;;;-4.09;94.74;102336.16;5026199;28;20120;-79
2021/12/22 05:55:37;;;;;;;27.33;12.35;;;;;;;-4.21;95.08;102342.25;5023299;28;20051;-80
2021/12/22 05:58:02;;;;;;;35.45;11.23;;;;;;;-4.05;95.04;102349.63;5027313;28;20044;-79
2021/12/22 06:00:28;;;;;;;24.30;10.80;;;;;;;-4.02;94.60;102345.34;5009125;28;20041;-79
2021/12/22 06:02:53;;;;;;;26.00;11.70;;;;;;;-3.99;94.47;102339.41;5024304;28;20037;-78
2021/12/22 06:05:19;;;;;;;27.33;11.73;;;;;;;-3.86;94.39;102343.41;5012815;28;20514;-79
2021/12/22 06:07:45;;;;;;;30.63;12.23;;;;;;;-3.92;94.33;102339.28;5024017;28;20115;-78
2021/12/22 06:10:11;;;;;;;29.25;11.27;;;;;;;-3.93;93.90;102329.97;5025435;28;20542;-79
2021/12/22 06:12:37;;;;;;;27.48;10.85;;;;;;;-3.96;94.19;102336.81;5031603;28;20483;-78
2021/12/22 06:15:03;;;;;;;28.05;10.27;;;;;;;-4.01;94.41;102331.81;5023168;28;20048;-79
2021/12/22 06:17:28;;;;;;;28.45;9.65;;;;;;;-3.96;94.16;102329.19;5009162;28;20046;-79
2021/12/22 06:19:54;;;;;;;26.58;11.23;;;;;;;-3.99;94.63;102319.97;5026059;28;20029;-79
2021/12/22 06:22:19;;;;;;;20.92;9.65;;;;;;;-3.97;94.44;102309.81;5029268;28;20463;-79
2021/12/22 06:24:45;;;;;;;26.27;10.23;;;;;;;-3.92;94.03;102308.84;5042815;28;20060;-79
2021/12/22 06:27:10;;;;;;;32.33;9.65;;;;;;;-3.85;94.18;102313.81;5027765;28;20041;-79
2021/12/22 06:29:36;;;;;;;24.08;10.70;;;;;;;-3.85;94.04;102317.19;5011812;28;20068;-79
2021/12/22 06:32:01;;;;;;;27.83;10.35;;;;;;;-3.89;93.55;102314.75;5014490;28;20489;-79
2021/12/22 06:34:27;;;;;;;24.25;10.45;;;;;;;-3.94;93.90;102324.94;5015823;28;20040;-79
2021/12/22 06:36:52;;;;;;;28.13;10.52;;;;;;;-3.95;93.94;102323.28;5010469;28;20508;-79
2021/12/22 06:39:18;;;;;;;26.23;11.05;;;;;;;-3.92;94.03;102313.06;5028414;28;20037;-79
2021/12/22 06:41:44;;;;;;;26.52;9.93;;;;;;;-3.92;93.98;102308.84;5012648;28;20045;-79
2021/12/22 06:44:10;;;;;;;25.80;10.32;;;;;;;-3.90;93.75;102311.34;5026411;28;20029;-79
2021/12/22 06:46:35;;;;;;;30.33;10.98;;;;;;;-3.92;93.77;102318.13;5027074;28;20605;-79
2021/12/22 06:49:01;;;;;;;22.25;9.82;;;;;;;-3.91;93.79;102304.63;5030414;28;20037;-80
2021/12/22 06:51:26;;;;;;;24.63;9.95;;;;;;;-3.89;93.52;102307.13;5029017;28;20434;-79
2021/12/22 06:53:52;;;;;;;22.58;10.00;;;;;;;-3.97;94.05;102309.81;5027249;28;20504;-79
2021/12/22 06:56:17;;;;;;;29.92;10.82;;;;;;;-3.94;93.61;102314.81;5033598;28;20026;-79
2021/12/22 06:58:43;;;;;;;25.13;9.63;;;;;;;-3.93;94.11;102311.41;5032945;28;20029;-79
2021/12/22 07:01:09;;;;;;;26.90;10.30;;;;;;;-3.93;93.90;102304.63;5022444;28;20022;-79
2021/12/22 07:03:34;;;;;;;25.17;10.23;;;;;;;-3.82;93.81;102309.53;5043853;28;20483;-79
2021/12/22 07:06:00;;;;;;;23.75;9.60;;;;;;;-3.77;93.72;102307.75;5026163;28;20042;-79
2021/12/22 07:08:25;;;;;;;27.77;11.10;;;;;;;-3.82;93.37;102318.84;5033632;28;20029;-79
2021/12/22 07:10:52;;;;;;;30.55;10.68;;;;;;;-3.90;93.74;102316.41;5031444;28;20408;-79
2021/12/22 07:13:17;;;;;;;24.75;10.00;;;;;;;-3.81;93.67;102317.97;5028555;28;20087;-79
2021/12/22 07:15:43;;;;;;;29.95;11.10;;;;;;;-3.86;94.04;102318.06;5026483;28;20434;-79
2021/12/22 07:18:11;;;;;;;26.85;11.40;;;;;;;-3.76;93.51;102319.56;5011120;28;20044;-79
2021/12/22 07:20:36;;;;;;;25.77;11.10;;;;;;;-3.78;93.20;102311.16;5028568;28;20040;-79
2021/12/22 07:23:02;;;;;;;28.02;10.85;;;;;;;-3.68;93.47;102313.53;5026783;28;20045;-80
2021/12/22 07:25:27;;;;;;;25.23;9.73;;;;;;;-3.73;93.12;102309.38;5031316;28;20045;-79
2021/12/22 07:27:53;;;;;;;23.00;9.88;;;;;;;-3.73;93.14;102316.13;5014721;28;20546;-78
2021/12/22 07:30:18;;;;;;;31.50;10.25;;;;;;;-3.73;93.20;102314.44;5035097;28;20033;-78
2021/12/22 07:32:44;;;;;;;20.73;9.52;;;;;;;-3.75;93.77;102313.63;5013756;28;20034;-79
2021/12/22 07:35:13;;;;;;;30.55;8.85;;;;;;;-3.68;92.96;102313.53;5029205;28;20555;-79
2021/12/22 07:37:50;;;;;;;30.63;10.57;;;;;;;-3.76;93.44;102319.56;5028731;28;20037;-78
2021/12/22 07:40:17;;;;;;;29.55;12.52;;;;;;;-3.73;92.97;102326.28;5031391;28;20040;-79
2021/12/22 07:42:43;;;;;;;34.75;11.70;;;;;;;-3.73;93.35;102322.06;5031131;28;20127;-77
2021/12/22 07:45:11;;;;;;;34.50;13.70;;;;;;;-3.73;93.21;102324.59;5015241;28;20487;-78
2021/12/22 07:47:37;;;;;;;89.90;26.52;;;;;;;-3.66;93.28;102325.31;5031019;28;20710;-78
2021/12/22 07:50:05;;;;;;;49.85;16.10;;;;;;;-3.56;92.84;102329.38;5036587;28;20049;-78
2021/12/22 07:52:30;;;;;;;61.13;17.88;;;;;;;-3.57;93.01;102332.75;5030904;28;20038;-79
2021/12/22 07:54:57;;;;;;;74.65;21.58;;;;;;;-3.58;92.53;102331.09;5031302;28;20138;-79
2021/12/22 07:57:23;;;;;;;70.85;21.77;;;;;;;-3.55;92.88;102333.56;5031194;28;21020;-78
2021/12/22 07:59:49;;;;;;;35.20;13.25;;;;;;;-3.63;92.96;102324.44;5035678;28;20060;-79
2021/12/22 08:02:14;;;;;;;35.15;14.00;;;;;;;-3.46;92.11;102327.50;5028919;28;20104;-78
2021/12/22 08:04:41;;;;;;;31.10;12.27;;;;;;;-3.44;92.45;102325.75;5030838;28;20038;-78
2021/12/22 08:07:06;;;;;;;25.92;11.07;;;;;;;-3.52;92.26;102328.44;5033307;28;20448;-79
2021/12/22 08:09:32;;;;;;;33.53;12.40;;;;;;;-3.50;92.69;102330.94;5016217;28;20050;-75
2021/12/22 08:12:04;;;;;;;29.27;12.40;;;;;;;-3.49;92.34;102327.53;5034257;28;20049;-78
2021/12/22 08:14:35;;;;;;;34.75;12.90;;;;;;;-3.39;92.34;102323.13;5025117;28;20044;-78
2021/12/22 08:17:01;;;;;;;29.38;12.95;;;;;;;-3.40;92.29;102319.75;5031833;28;20127;-78
2021/12/22 08:19:26;;;;;;;25.65;11.65;;;;;;;-3.36;92.35;102315.47;5008403;28;20112;-78
2021/12/22 08:21:52;;;;;;;26.13;11.80;;;;;;;-3.42;92.02;102318.97;5027157;28;20084;-78
2021/12/22 08:24:18;;;;;;;26.45;12.40;;;;;;;-3.41;92.42;102327.41;5028879;28;20025;-78
2021/12/22 08:26:43;;;;;;;23.40;11.85;;;;;;;-3.42;92.49;102326.56;5025298;28;20033;-78
2021/12/22 08:29:09;;;;;;;24.40;11.95;;;;;;;-3.28;92.17;102315.31;5031949;28;20044;-78
2021/12/22 08:31:34;;;;;;;26.75;12.18;;;;;;;-3.35;92.18;102329.84;5030062;28;20116;-78
2021/12/22 08:34:00;;;;;;;26.40;12.30;;;;;;;-3.47;92.45;102318.19;5026185;28;20033;-78
2021/12/22 08:39:13;;;;;;;30.88;14.05;;;;;;;-3.36;92.66;102310.41;5032581;28;20441;-77
2021/12/22 08:41:40;;;;;;;24.35;12.10;;;;;;;-3.22;92.02;102308.44;5023143;28;20120;-79
2021/12/22 08:44:11;;;;;;;27.30;11.90;;;;;;;-3.30;92.48;102309.44;5029900;28;20543;-78
2021/12/22 08:46:42;;;;;;;34.15;14.23;;;;;;;-3.26;92.23;102308.50;5029939;28;20033;-78
2021/12/22 08:49:07;;;;;;;27.10;13.45;;;;;;;-3.16;92.35;102308.31;5049601;28;20069;-76
2021/12/22 08:51:33;;;;;;;28.60;12.73;;;;;;;-3.13;91.94;102304.84;5027806;28;20068;-78
2021/12/22 08:54:00;;;;;;;30.92;12.77;;;;;;;-3.02;92.02;102307.19;5014735;28;20038;-78
2021/12/22 08:56:26;;;;;;;34.03;13.35;;;;;;;-3.05;91.78;102308.09;5036726;28;20061;-78
2021/12/22 08:58:54;;;;;;;28.25;13.07;;;;;;;-3.02;91.63;102308.00;5027881;28;20072;-77
2021/12/22 09:01:23;;;;;;;35.55;12.77;;;;;;;-3.01;91.87;102303.78;5026356;28;20538;-78
2021/12/22 09:03:50;;;;;;;30.40;13.70;;;;;;;-2.97;91.78;102306.22;5021380;28;20033;-77
2021/12/22 09:06:16;;;;;;;28.00;13.00;;;;;;;-2.97;91.56;102307.94;5024956;28;20029;-78
2021/12/22 09:08:42;;;;;;;31.52;13.38;;;;;;;-2.97;91.48;102313.84;5038699;28;20033;-78
2021/12/22 09:11:08;;;;;;;27.75;13.57;;;;;;;-2.86;91.17;102316.16;5034546;28;20037;-77
2021/12/22 09:13:36;;;;;;;28.95;13.35;;;;;;;-2.78;91.03;102309.22;5049216;28;20041;-78
2021/12/22 09:16:02;;;;;;;26.40;11.40;;;;;;;-2.71;90.91;102312.47;5021145;28;20047;-77
2021/12/22 09:18:27;;;;;;;25.48;13.30;;;;;;;-2.76;90.85;102310.00;5025503;28;20544;-78
2021/12/22 09:20:53;;;;;;;30.25;13.10;;;;;;;-2.77;90.49;102310.03;5041565;28;20325;-77
2021/12/22 09:23:19;;;;;;;30.10;13.57;;;;;;;-2.75;90.59;102321.84;5010154;28;20469;-77
2021/12/22 09:25:44;;;;;;;31.30;12.40;;;;;;;-2.80;90.89;102312.66;5007494;28;20707;-77
2021/12/22 09:28:12;;;;;;;32.40;12.98;;;;;;;-2.73;91.13;102314.22;5009097;28;20041;-77
2021/12/22 09:30:40;;;;;;;32.53;13.32;;;;;;;-2.63;90.67;102309.75;5026831;28;20038;-76
2021/12/22 09:33:11;;;;;;;27.75;12.88;;;;;;;-2.71;91.16;102309.06;5026159;28;20033;-78
2021/12/22 09:35:37;;;;;;;27.23;13.80;;;;;;;-2.68;91.08;102309.00;5006976;28;20038;-77
2021/12/22 09:38:03;;;;;;;26.83;12.73;;;;;;;-2.67;91.39;102311.53;5039457;28;20049;-77
2021/12/22 09:40:29;;;;;;;30.65;14.07;;;;;;;-2.53;90.38;102312.91;5049191;28;20192;-77
2021/12/22 09:42:54;;;;;;;31.63;15.00;;;;;;;-2.44;90.64;102305.09;5028037;28;20052;-77
2021/12/22 09:45:23;;;;;;;35.15;14.88;;;;;;;-2.38;90.55;102305.78;5025548;28;20510;-77
2021/12/22 09:48:22;;;;;;;31.13;13.43;;;;;;;-2.35;90.36;102308.25;5025222;28;20163;-77
2021/12/22 09:52:16;;;;;;;31.95;14.23;;;;;;;-2.21;90.07;102296.91;5020739;28;20389;-77
2021/12/22 09:53:44;;;;;;;32.63;13.68;;;;;;;-2.23;89.88;102296.94;5021157;28;20037;-76
2021/12/22 09:56:12;;;;;;;34.03;14.10;;;;;;;-2.14;89.63;102307.78;5012172;28;20040;-76
2021/12/22 09:58:43;;;;;;;28.38;14.57;;;;;;;-2.04;89.50;102299.88;5030071;28;20149;-77
2021/12/22 10:01:10;;;;;;;33.50;13.38;;;;;;;-2.06;89.47;102295.72;5033094;28;20033;-75
2021/12/22 10:03:35;;;;;;;32.97;14.15;;;;;;;-1.96;89.61;102292.06;5029629;28;20041;-76
2021/12/22 10:06:02;;;;;;;31.08;13.85;;;;;;;-1.90;88.70;102297.00;5028755;28;20119;-76
2021/12/22 10:08:28;;;;;;;31.80;14.90;;;;;;;-1.93;89.17;102291.16;5029079;28;20155;-76
2021/12/22 10:11:04;;;;;;;26.15;13.65;;;;;;;-1.88;88.43;102289.34;5033403;28;20041;-76
2021/12/22 10:13:31;;;;;;;28.98;14.60;;;;;;;-1.85;88.24;102284.16;5025439;28;20060;-77
2021/12/22 10:15:58;;;;;;;31.30;13.65;;;;;;;-1.86;88.53;102280.78;5025609;28;20496;-76
2021/12/22 10:18:29;;;;;;;31.67;15.32;;;;;;;-1.86;88.75;102278.25;5030212;28;20032;-76
2021/12/22 10:21:09;;;;;;;30.45;14.45;;;;;;;-1.74;88.01;102279.63;5019976;28;20029;-77
2021/12/22 10:23:35;;;;;;;33.05;14.23;;;;;;;-1.64;87.84;102275.13;5030534;28;20487;-76
2021/12/22 10:26:04;;;;;;;36.95;15.68;;;;;;;-1.67;87.89;102267.59;5025965;28;20040;-75
2021/12/22 10:28:45;;;;;;;35.90;15.48;;;;;;;-1.68;88.39;102273.56;5029879;28;20511;-76
2021/12/22 10:31:11;;;;;;;43.05;18.52;;;;;;;-1.65;88.62;102265.84;5029395;28;20037;-76
2021/12/22 10:33:42;;;;;;;37.72;15.82;;;;;;;-1.51;88.21;102265.47;5033249;28;20052;-77
2021/12/22 10:36:21;;;;;;;27.98;13.85;;;;;;;-1.54;88.18;102271.47;5007794;28;20037;-76
2021/12/22 10:38:49;;;;;;;25.80;14.32;;;;;;;-1.37;87.53;102265.94;5027967;28;20033;-76
2021/12/22 10:41:14;;;;;;;31.85;14.65;;;;;;;-1.49;87.63;102262.00;5027599;28;20091;-77
2021/12/22 10:43:44;;;;;;;27.77;15.25;;;;;;;-1.53;88.16;102259.59;5031478;28;20459;-77
2021/12/22 10:46:16;;;;;;;28.02;15.18;;;;;;;-1.49;88.02;102256.06;5028788;28;20033;-77
2021/12/22 10:51:36;;;;;;;32.10;15.23;;;;;;;-1.23;86.72;102243.44;5024446;28;20487;-77
2021/12/22 10:54:09;;;;;;;28.80;14.80;;;;;;;-1.31;86.35;102240.28;5038161;28;20416;-75
2021/12/22 10:56:36;;;;;;;27.67;14.00;;;;;;;-1.25;86.74;102235.00;5033616;28;20064;-77
2021/12/22 10:59:21;;;;;;;31.88;14.70;;;;;;;-1.33;86.74;102241.22;5030613;28;20088;-77
2021/12/22 11:01:53;;;;;;;33.33;15.98;;;;;;;-1.31;87.12;102237.75;5026514;28;20045;-77
2021/12/22 11:04:24;;;;;;;29.92;14.48;;;;;;;-1.22;87.26;102234.94;5023456;28;20042;-76
2021/12/22 11:06:52;;;;;;;31.40;14.25;;;;;;;-1.13;86.10;102238.09;5022333;28;20060;-77
2021/12/22 11:09:19;;;;;;;35.28;14.20;;;;;;;-1.08;86.69;102241.34;5028667;28;20029;-76
2021/12/22 11:11:55;;;;;;;30.75;15.15;;;;;;;-1.12;86.61;102227.84;5024022;28;20048;-76
2021/12/22 11:14:26;;;;;;;35.85;15.98;;;;;;;-1.06;86.49;102232.75;5042552;28;20025;-76
2021/12/22 11:17:07;;;;;;;31.15;14.52;;;;;;;-1.06;86.29;102240.41;5027946;28;20083;-77
2021/12/22 11:19:34;;;;;;;32.05;15.15;;;;;;;-1.12;86.48;102234.66;5038383;28;20037;-77
2021/12/22 11:22:11;;;;;;;31.73;15.10;;;;;;;-0.95;86.45;102227.34;5026272;28;20037;-77
2021/12/22 11:24:41;;;;;;;29.27;15.35;;;;;;;-0.87;85.78;102220.31;5030758;28;20033;-77
2021/12/22 11:27:08;;;;;;;31.55;13.73;;;;;;;-0.89;85.91;102216.97;5009413;28;20430;-77
2021/12/22 11:29:36;;;;;;;27.90;13.98;;;;;;;-0.95;86.54;102217.16;5009980;28;20037;-77
2021/12/22 11:32:06;;;;;;;35.95;14.52;;;;;;;-0.88;85.98;102202.53;5023513;28;20053;-77
2021/12/22 11:34:35;;;;;;;30.83;14.50;;;;;;;-0.73;84.79;102201.22;5027783;28;20514;-78
2021/12/22 11:37:04;;;;;;;29.55;14.07;;;;;;;-0.89;86.20;102203.41;5011834;28;20038;-80